sensor_id;sensor_type;location;lat;lon;timestamp;P1;P2;P0
78512;PMS5003;67809;55.034;73.462;2024-02-15T06:47:07;7.00;6.00;4.00
78512;PMS5003;67809;55.034;73.462;2024-02-15T06:49:39;7.00;6.25;4.00
78512;PMS5003;67809;55.034;73.462;2024-02-15T06:52:08;8.00;6.00;3.00
78512;PMS5003;67809;55.034;73.462;2024-02-15T06:54:44;8.00;6.00;3.00
78512;PMS5003;67809;55.034;73.462;2024-02-15T06:57:11;4.00;4.00;3.00
78512;PMS5003;67809;55.034;73.462;2024-02-15T06:59:39;6.00;5.00;3.00
78512;PMS5003;67809;55.034;73.462;2024-02-15T07:02:06;6.00;5.00;3.00
78512;PMS5003;67809;55.034;73.462;2024-02-15T07:04:34;5.00;3.75;2.00
78512;PMS5003;67809;55.034;73.462;2024-02-15T07:07:00;8.00;6.00;4.00
78512;PMS5003;67809;55.034;73.462;2024-02-15T07:09:27;8.00;6.50;4.00
78512;PMS5003;67809;55.034;73.462;2024-02-15T07:11:54;8.00;7.00;5.00
78512;PMS5003;67809;55.034;73.462;2024-02-15T07:14:20;6.00;5.25;3.00
78512;PMS5003;67809;55.034;73.462;2024-02-15T07:16:47;7.00;4.67;3.00
78512;PMS5003;67809;55.034;73.462;2024-02-15T07:19:15;6.00;5.00;2.75
78512;PMS5003;67809;55.034;73.462;2024-02-15T07:21:41;9.75;7.00;4.00
78512;PMS5003;67809;55.034;73.462;2024-02-15T07:24:08;6.50;4.50;2.00
78512;PMS5003;67809;55.034;73.462;2024-02-15T07:26:35;17.67;12.00;7.33
78512;PMS5003;67809;55.034;73.462;2024-02-15T07:29:02;12.00;9.00;5.00
78512;PMS5003;67809;55.034;73.462;2024-02-15T07:31:32;10.00;8.50;4.00
78512;PMS5003;67809;55.034;73.462;2024-02-15T07:34:01;8.00;6.00;3.00
78512;PMS5003;67809;55.034;73.462;2024-02-15T07:36:27;9.67;8.00;4.33
78512;PMS5003;67809;55.034;73.462;2024-02-15T07:38:54;4.00;3.75;2.00
78512;PMS5003;67809;55.034;73.462;2024-02-15T07:41:23;8.50;6.75;4.00
78512;PMS5003;67809;55.034;73.462;2024-02-15T07:43:51;6.00;5.00;3.00
78512;PMS5003;67809;55.034;73.462;2024-02-15T07:46:21;7.00;5.00;3.00
78512;PMS5003;67809;55.034;73.462;2024-02-15T07:48:48;6.00;5.00;2.00
78512;PMS5003;67809;55.034;73.462;2024-02-15T07:51:15;8.50;6.00;3.00
78512;PMS5003;67809;55.034;73.462;2024-02-15T07:53:51;7.00;6.00;4.00
78512;PMS5003;67809;55.034;73.462;2024-02-15T07:56:18;5.00;4.00;2.00
78512;PMS5003;67809;55.034;73.462;2024-02-15T07:58:45;4.00;3.00;2.00
78512;PMS5003;67809;55.034;73.462;2024-02-15T08:01:14;6.50;4.75;3.00
78512;PMS5003;67809;55.034;73.462;2024-02-15T08:03:42;7.75;6.25;3.25
78512;PMS5003;67809;55.034;73.462;2024-02-15T08:06:11;10.00;7.00;4.00
78512;PMS5003;67809;55.034;73.462;2024-02-15T08:08:39;6.50;5.75;3.00
78512;PMS5003;67809;55.034;73.462;2024-02-15T08:11:09;6.00;4.00;2.00
78512;PMS5003;67809;55.034;73.462;2024-02-15T08:13:44;6.75;5.00;3.00
78512;PMS5003;67809;55.034;73.462;2024-02-15T08:16:11;5.00;5.00;3.00
78512;PMS5003;67809;55.034;73.462;2024-02-15T08:18:38;4.50;4.00;2.25
78512;PMS5003;67809;55.034;73.462;2024-02-15T08:21:05;5.00;4.00;2.00
78512;PMS5003;67809;55.034;73.462;2024-02-15T08:23:31;6.00;5.00;3.00
78512;PMS5003;67809;55.034;73.462;2024-02-15T08:25:58;6.00;5.00;2.00
78512;PMS5003;67809;55.034;73.462;2024-02-15T08:28:24;4.75;4.00;2.75
78512;PMS5003;67809;55.034;73.462;2024-02-15T08:30:52;4.25;2.25;1.00
78512;PMS5003;67809;55.034;73.462;2024-02-15T08:33:18;2.75;2.00;1.00
78512;PMS5003;67809;55.034;73.462;2024-02-15T08:35:45;4.00;4.00;2.00
78512;PMS5003;67809;55.034;73.462;2024-02-15T08:38:11;5.00;3.50;2.00
78512;PMS5003;67809;55.034;73.462;2024-02-15T08:40:37;5.00;4.00;2.00
78512;PMS5003;67809;55.034;73.462;2024-02-15T08:43:04;4.00;3.75;2.00
78512;PMS5003;67809;55.034;73.462;2024-02-15T08:45:30;4.75;4.00;3.00
78512;PMS5003;67809;55.034;73.462;2024-02-15T08:47:56;6.00;5.00;3.00
78512;PMS5003;67809;55.034;73.462;2024-02-15T08:50:22;5.00;5.00;3.00
78512;PMS5003;67809;55.034;73.462;2024-02-15T08:52:49;4.00;3.75;2.00
78512;PMS5003;67809;55.034;73.462;2024-02-15T08:55:16;6.00;4.75;3.00
78512;PMS5003;67809;55.034;73.462;2024-02-15T08:57:43;4.00;3.00;2.00
78512;PMS5003;67809;55.034;73.462;2024-02-15T09:00:12;3.75;3.50;2.00
78512;PMS5003;67809;55.034;73.462;2024-02-15T09:02:42;4.00;4.00;2.00
78512;PMS5003;67809;55.034;73.462;2024-02-15T09:05:09;5.00;4.00;3.00
78512;PMS5003;67809;55.034;73.462;2024-02-15T09:07:36;8.00;6.00;3.00
78512;PMS5003;67809;55.034;73.462;2024-02-15T09:10:07;4.00;4.00;3.00
78512;PMS5003;67809;55.034;73.462;2024-02-15T09:12:36;6.00;5.00;3.00
78512;PMS5003;67809;55.034;73.462;2024-02-15T09:15:03;5.00;4.00;2.00
78512;PMS5003;67809;55.034;73.462;2024-02-15T09:17:30;4.00;4.00;2.00
78512;PMS5003;67809;55.034;73.462;2024-02-15T09:19:58;6.25;5.00;3.00
78512;PMS5003;67809;55.034;73.462;2024-02-15T09:22:24;6.00;5.00;3.00
78512;PMS5003;67809;55.034;73.462;2024-02-15T09:24:50;6.00;4.00;3.00
78512;PMS5003;67809;55.034;73.462;2024-02-15T09:27:17;7.00;5.67;3.00
78512;PMS5003;67809;55.034;73.462;2024-02-15T09:29:43;6.00;4.75;3.00
78512;PMS5003;67809;55.034;73.462;2024-02-15T09:32:09;5.25;4.00;2.00
78512;PMS5003;67809;55.034;73.462;2024-02-15T09:34:35;7.00;4.00;3.00
78512;PMS5003;67809;55.034;73.462;2024-02-15T09:37:03;4.00;4.00;2.00
78512;PMS5003;67809;55.034;73.462;2024-02-15T09:39:30;6.00;5.00;2.75
78512;PMS5003;67809;55.034;73.462;2024-02-15T09:41:57;6.00;4.00;2.00
78512;PMS5003;67809;55.034;73.462;2024-02-15T09:44:25;5.25;4.25;2.50
78512;PMS5003;67809;55.034;73.462;2024-02-15T09:47:04;5.00;4.00;3.00
78512;PMS5003;67809;55.034;73.462;2024-02-15T09:49:37;7.00;5.00;3.00
78512;PMS5003;67809;55.034;73.462;2024-02-15T09:52:08;8.00;6.00;3.00
78512;PMS5003;67809;55.034;73.462;2024-02-15T09:54:42;4.50;4.00;3.00
78512;PMS5003;67809;55.034;73.462;2024-02-15T09:57:11;9.67;7.00;4.00
78512;PMS5003;67809;55.034;73.462;2024-02-15T09:59:38;5.75;4.00;2.00
78512;PMS5003;67809;55.034;73.462;2024-02-15T10:02:05;4.00;3.00;2.00
78512;PMS5003;67809;55.034;73.462;2024-02-15T10:04:37;6.00;5.00;3.00
78512;PMS5003;67809;55.034;73.462;2024-02-15T10:07:05;6.00;5.00;3.00
78512;PMS5003;67809;55.034;73.462;2024-02-15T10:09:34;5.00;4.00;2.00
78512;PMS5003;67809;55.034;73.462;2024-02-15T10:12:03;7.00;5.75;3.00
78512;PMS5003;67809;55.034;73.462;2024-02-15T10:14:32;6.00;5.00;3.00
78512;PMS5003;67809;55.034;73.462;2024-02-15T10:17:08;7.00;3.33;2.00
78512;PMS5003;67809;55.034;73.462;2024-02-15T10:19:38;6.00;4.00;2.00
78512;PMS5003;67809;55.034;73.462;2024-02-15T10:22:08;8.00;5.75;3.00
78512;PMS5003;67809;55.034;73.462;2024-02-15T10:24:34;11.00;8.00;4.00
78512;PMS5003;67809;55.034;73.462;2024-02-15T10:27:03;3.75;3.00;2.00
78512;PMS5003;67809;55.034;73.462;2024-02-15T10:29:36;6.75;4.75;3.00
78512;PMS5003;67809;55.034;73.462;2024-02-15T10:32:05;4.75;4.00;2.00
78512;PMS5003;67809;55.034;73.462;2024-02-15T10:34:42;7.00;5.25;3.00
78512;PMS5003;67809;55.034;73.462;2024-02-15T10:37:13;4.00;3.00;2.00
78512;PMS5003;67809;55.034;73.462;2024-02-15T10:39:42;4.00;4.00;2.00
78512;PMS5003;67809;55.034;73.462;2024-02-15T10:42:08;6.25;5.25;3.00
78512;PMS5003;67809;55.034;73.462;2024-02-15T10:44:38;14.00;10.75;6.25
78512;PMS5003;67809;55.034;73.462;2024-02-15T10:47:07;10.00;7.00;4.00
78512;PMS5003;67809;55.034;73.462;2024-02-15T10:49:34;6.00;4.00;2.00
78512;PMS5003;67809;55.034;73.462;2024-02-15T10:52:04;3.75;3.00;2.00
78512;PMS5003;67809;55.034;73.462;2024-02-15T10:57:03;3.50;2.75;1.00
78512;PMS5003;67809;55.034;73.462;2024-02-15T10:59:34;2.00;2.00;1.00
78512;PMS5003;67809;55.034;73.462;2024-02-15T11:02:37;4.00;3.00;2.00
78512;PMS5003;67809;55.034;73.462;2024-02-15T11:05:06;6.00;5.00;2.00
78512;PMS5003;67809;55.034;73.462;2024-02-15T11:07:36;2.25;2.00;1.25
78512;PMS5003;67809;55.034;73.462;2024-02-15T11:10:05;6.00;5.00;2.00
78512;PMS5003;67809;55.034;73.462;2024-02-15T11:12:37;5.75;4.00;1.75
78512;PMS5003;67809;55.034;73.462;2024-02-15T11:15:05;5.00;4.00;2.00
78512;PMS5003;67809;55.034;73.462;2024-02-15T11:20:59;18.50;14.25;7.00
78512;PMS5003;67809;55.034;73.462;2024-02-15T11:23:07;8.25;5.75;4.00
78512;PMS5003;67809;55.034;73.462;2024-02-15T11:25:39;9.50;7.25;3.75
78512;PMS5003;67809;55.034;73.462;2024-02-15T11:30:50;4.50;3.00;2.00
78512;PMS5003;67809;55.034;73.462;2024-02-15T11:33:33;3.50;2.50;1.50
78512;PMS5003;67809;55.034;73.462;2024-02-15T11:38:28;3.00;2.00;1.00
78512;PMS5003;67809;55.034;73.462;2024-02-15T11:46:14;3.00;2.00;1.00
78512;PMS5003;67809;55.034;73.462;2024-02-15T11:48:40;5.00;4.00;1.33
78512;PMS5003;67809;55.034;73.462;2024-02-15T11:51:07;4.50;3.00;2.00
78512;PMS5003;67809;55.034;73.462;2024-02-15T11:53:37;4.50;4.00;2.00
78512;PMS5003;67809;55.034;73.462;2024-02-15T11:56:03;3.00;3.00;1.25
78512;PMS5003;67809;55.034;73.462;2024-02-15T11:58:35;3.67;2.00;1.00
78512;PMS5003;67809;55.034;73.462;2024-02-15T12:01:18;4.00;3.50;2.00
78512;PMS5003;67809;55.034;73.462;2024-02-15T12:04:03;5.50;3.00;2.00
78512;PMS5003;67809;55.034;73.462;2024-02-15T12:06:47;3.25;2.00;1.00
78512;PMS5003;67809;55.034;73.462;2024-02-15T12:09:32;3.00;3.00;1.75
78512;PMS5003;67809;55.034;73.462;2024-02-15T12:12:17;2.25;2.00;1.00
78512;PMS5003;67809;55.034;73.462;2024-02-15T12:15:05;7.00;5.00;2.00
78512;PMS5003;67809;55.034;73.462;2024-02-15T12:17:50;5.50;3.50;2.00
78512;PMS5003;67809;55.034;73.462;2024-02-15T12:20:53;8.50;7.00;4.00
78512;PMS5003;67809;55.034;73.462;2024-02-15T12:23:35;5.00;4.00;3.00
78512;PMS5003;67809;55.034;73.462;2024-02-15T12:26:01;5.75;4.75;2.25
78512;PMS5003;67809;55.034;73.462;2024-02-15T12:28:31;6.75;5.50;4.00
78512;PMS5003;67809;55.034;73.462;2024-02-15T12:31:13;10.00;7.00;5.00
78512;PMS5003;67809;55.034;73.462;2024-02-15T12:33:40;7.50;5.50;3.00
78512;PMS5003;67809;55.034;73.462;2024-02-15T12:36:19;9.00;7.75;5.50
78512;PMS5003;67809;55.034;73.462;2024-02-15T12:38:58;9.00;8.00;3.67
78512;PMS5003;67809;55.034;73.462;2024-02-15T12:41:25;8.50;6.25;4.00
78512;PMS5003;67809;55.034;73.462;2024-02-15T12:43:52;6.00;5.00;3.00
78512;PMS5003;67809;55.034;73.462;2024-02-15T12:46:19;7.25;6.00;5.00
78512;PMS5003;67809;55.034;73.462;2024-02-15T12:48:46;7.33;4.00;2.00
78512;PMS5003;67809;55.034;73.462;2024-02-15T12:51:15;7.00;5.00;3.00
78512;PMS5003;67809;55.034;73.462;2024-02-15T12:53:42;8.00;6.00;2.25
78512;PMS5003;67809;55.034;73.462;2024-02-15T12:56:27;8.75;6.25;3.50
78512;PMS5003;67809;55.034;73.462;2024-02-15T12:58:53;7.33;6.00;3.33
78512;PMS5003;67809;55.034;73.462;2024-02-15T13:01:19;6.00;4.00;3.00
78512;PMS5003;67809;55.034;73.462;2024-02-15T13:03:46;4.00;3.00;1.75
78512;PMS5003;67809;55.034;73.462;2024-02-15T13:06:32;9.00;7.00;4.25
78512;PMS5003;67809;55.034;73.462;2024-02-15T13:09:20;9.00;7.00;4.33
78512;PMS5003;67809;55.034;73.462;2024-02-15T13:11:48;9.00;7.00;3.00
78512;PMS5003;67809;55.034;73.462;2024-02-15T13:14:16;8.00;5.00;3.00
78512;PMS5003;67809;55.034;73.462;2024-02-15T13:17:02;8.50;6.50;4.00
78512;PMS5003;67809;55.034;73.462;2024-02-15T13:19:28;5.00;4.00;2.00
78512;PMS5003;67809;55.034;73.462;2024-02-15T13:21:55;6.00;5.00;3.00
78512;PMS5003;67809;55.034;73.462;2024-02-15T13:24:23;5.75;4.00;3.00
78512;PMS5003;67809;55.034;73.462;2024-02-15T13:27:06;6.50;5.00;3.75
78512;PMS5003;67809;55.034;73.462;2024-02-15T13:29:48;11.25;8.75;5.25
78512;PMS5003;67809;55.034;73.462;2024-02-15T13:32:14;7.00;5.00;3.00
78512;PMS5003;67809;55.034;73.462;2024-02-15T13:34:42;6.00;5.00;3.00
78512;PMS5003;67809;55.034;73.462;2024-02-15T13:37:11;6.00;5.00;3.00
78512;PMS5003;67809;55.034;73.462;2024-02-15T13:39:39;4.00;4.00;2.00
78512;PMS5003;67809;55.034;73.462;2024-02-15T13:42:09;6.00;5.00;3.00
78512;PMS5003;67809;55.034;73.462;2024-02-15T13:44:44;5.00;4.00;2.00
78512;PMS5003;67809;55.034;73.462;2024-02-15T13:47:11;5.00;4.50;2.50
78512;PMS5003;67809;55.034;73.462;2024-02-15T13:49:38;5.00;3.00;1.25
78512;PMS5003;67809;55.034;73.462;2024-02-15T13:52:05;7.00;4.50;3.00
78512;PMS5003;67809;55.034;73.462;2024-02-15T13:54:32;6.00;4.00;2.00
78512;PMS5003;67809;55.034;73.462;2024-02-15T13:57:01;8.75;6.00;3.00
78512;PMS5003;67809;55.034;73.462;2024-02-15T13:59:31;7.75;6.00;3.75
78512;PMS5003;67809;55.034;73.462;2024-02-15T14:01:57;8.00;6.00;3.00
78512;PMS5003;67809;55.034;73.462;2024-02-15T14:04:31;8.00;6.25;4.00
78512;PMS5003;67809;55.034;73.462;2024-02-15T14:06:59;7.50;5.50;3.00
78512;PMS5003;67809;55.034;73.462;2024-02-15T14:09:27;8.00;6.75;4.00
78512;PMS5003;67809;55.034;73.462;2024-02-15T14:11:53;10.50;7.50;4.75
78512;PMS5003;67809;55.034;73.462;2024-02-15T14:14:40;13.00;9.00;5.00
78512;PMS5003;67809;55.034;73.462;2024-02-15T14:17:06;12.00;9.00;5.00
78512;PMS5003;67809;55.034;73.462;2024-02-15T14:19:32;12.00;9.00;5.00
78512;PMS5003;67809;55.034;73.462;2024-02-15T14:21:59;9.25;8.00;4.25
78512;PMS5003;67809;55.034;73.462;2024-02-15T14:24:25;21.00;15.00;8.00
78512;PMS5003;67809;55.034;73.462;2024-02-15T14:26:51;16.00;12.00;5.75
78512;PMS5003;67809;55.034;73.462;2024-02-15T14:29:17;11.67;9.00;6.00
78512;PMS5003;67809;55.034;73.462;2024-02-15T14:31:46;11.00;9.00;5.00
78512;PMS5003;67809;55.034;73.462;2024-02-15T14:34:31;13.00;9.00;6.00
78512;PMS5003;67809;55.034;73.462;2024-02-15T14:36:57;15.25;11.75;7.50
78512;PMS5003;67809;55.034;73.462;2024-02-15T14:39:27;16.00;13.00;7.67
78512;PMS5003;67809;55.034;73.462;2024-02-15T14:41:53;11.75;8.50;5.75
78512;PMS5003;67809;55.034;73.462;2024-02-15T14:44:19;22.50;17.00;10.00
78512;PMS5003;67809;55.034;73.462;2024-02-15T14:46:45;18.50;14.50;8.00
78512;PMS5003;67809;55.034;73.462;2024-02-15T14:49:12;16.00;12.00;6.00
78512;PMS5003;67809;55.034;73.462;2024-02-15T14:51:38;16.00;11.75;7.50
78512;PMS5003;67809;55.034;73.462;2024-02-15T14:54:05;13.25;10.00;5.25
78512;PMS5003;67809;55.034;73.462;2024-02-15T14:56:31;16.50;12.00;6.00
78512;PMS5003;67809;55.034;73.462;2024-02-15T14:59:01;19.00;13.00;7.33
78512;PMS5003;67809;55.034;73.462;2024-02-15T15:01:28;13.50;10.00;7.00
78512;PMS5003;67809;55.034;73.462;2024-02-15T15:03:55;11.00;9.00;5.00
78512;PMS5003;67809;55.034;73.462;2024-02-15T15:06:21;15.00;10.00;6.00
78512;PMS5003;67809;55.034;73.462;2024-02-15T15:09:06;15.00;12.00;6.00
78512;PMS5003;67809;55.034;73.462;2024-02-15T15:11:51;19.00;14.75;8.00
78512;PMS5003;67809;55.034;73.462;2024-02-15T15:14:36;16.00;12.00;7.00
78512;PMS5003;67809;55.034;73.462;2024-02-15T15:17:03;17.00;13.50;7.00
78512;PMS5003;67809;55.034;73.462;2024-02-15T15:19:29;21.33;17.00;11.00
78512;PMS5003;67809;55.034;73.462;2024-02-15T15:21:56;18.00;11.50;6.75
78512;PMS5003;67809;55.034;73.462;2024-02-15T15:24:22;16.00;11.75;6.00
78512;PMS5003;67809;55.034;73.462;2024-02-15T15:26:48;13.00;10.75;5.25
78512;PMS5003;67809;55.034;73.462;2024-02-15T15:29:17;15.00;11.33;6.33
78512;PMS5003;67809;55.034;73.462;2024-02-15T15:31:44;13.00;11.00;7.00
78512;PMS5003;67809;55.034;73.462;2024-02-15T15:34:10;17.00;13.00;8.00
78512;PMS5003;67809;55.034;73.462;2024-02-15T15:36:37;14.00;11.25;6.00
78512;PMS5003;67809;55.034;73.462;2024-02-15T15:39:03;12.50;9.25;6.00
78512;PMS5003;67809;55.034;73.462;2024-02-15T15:41:34;13.33;11.00;6.00
78512;PMS5003;67809;55.034;73.462;2024-02-15T15:44:01;22.00;15.50;8.00
78512;PMS5003;67809;55.034;73.462;2024-02-15T15:46:27;16.25;12.00;8.75
78512;PMS5003;67809;55.034;73.462;2024-02-15T15:48:54;13.50;10.50;6.00
78512;PMS5003;67809;55.034;73.462;2024-02-15T15:51:20;13.00;10.00;6.00
78512;PMS5003;67809;55.034;73.462;2024-02-15T15:53:46;13.00;10.75;5.25
78512;PMS5003;67809;55.034;73.462;2024-02-15T15:56:15;12.00;9.00;5.75
78512;PMS5003;67809;55.034;73.462;2024-02-15T15:58:42;12.75;9.50;5.75
78512;PMS5003;67809;55.034;73.462;2024-02-15T16:01:10;11.25;8.75;5.50
78512;PMS5003;67809;55.034;73.462;2024-02-15T16:03:37;16.25;13.00;7.00
78512;PMS5003;67809;55.034;73.462;2024-02-15T16:06:04;15.25;11.75;7.00
78512;PMS5003;67809;55.034;73.462;2024-02-15T16:08:31;16.00;12.00;6.25
78512;PMS5003;67809;55.034;73.462;2024-02-15T16:10:57;14.67;11.00;6.33
78512;PMS5003;67809;55.034;73.462;2024-02-15T16:13:24;15.00;12.00;7.00
78512;PMS5003;67809;55.034;73.462;2024-02-15T16:15:51;16.50;12.00;7.00
78512;PMS5003;67809;55.034;73.462;2024-02-15T16:18:19;12.75;9.50;6.75
78512;PMS5003;67809;55.034;73.462;2024-02-15T16:20:46;19.00;15.00;9.00
78512;PMS5003;67809;55.034;73.462;2024-02-15T16:23:13;12.50;11.25;7.25
78512;PMS5003;67809;55.034;73.462;2024-02-15T16:25:43;15.25;12.00;7.00
78512;PMS5003;67809;55.034;73.462;2024-02-15T16:28:09;19.00;15.00;8.00
78512;PMS5003;67809;55.034;73.462;2024-02-15T16:30:36;19.50;15.00;8.00
78512;PMS5003;67809;55.034;73.462;2024-02-15T16:33:02;24.00;18.50;8.00
78512;PMS5003;67809;55.034;73.462;2024-02-15T16:35:31;13.25;11.25;7.00
78512;PMS5003;67809;55.034;73.462;2024-02-15T16:37:58;15.00;12.00;6.75
78512;PMS5003;67809;55.034;73.462;2024-02-15T16:40:24;17.33;12.67;8.00
78512;PMS5003;67809;55.034;73.462;2024-02-15T16:42:53;18.00;14.00;8.00
78512;PMS5003;67809;55.034;73.462;2024-02-15T16:45:21;12.75;11.00;6.00
78512;PMS5003;67809;55.034;73.462;2024-02-15T16:47:47;17.00;13.00;7.00
78512;PMS5003;67809;55.034;73.462;2024-02-15T16:50:25;10.00;8.00;5.00
78512;PMS5003;67809;55.034;73.462;2024-02-15T16:52:51;13.00;11.00;7.00
78512;PMS5003;67809;55.034;73.462;2024-02-15T16:55:18;12.25;10.00;6.00
78512;PMS5003;67809;55.034;73.462;2024-02-15T16:57:55;11.00;8.75;5.50
78512;PMS5003;67809;55.034;73.462;2024-02-15T17:00:49;14.00;11.00;7.00
78512;PMS5003;67809;55.034;73.462;2024-02-15T17:03:15;16.00;12.00;6.00
78512;PMS5003;67809;55.034;73.462;2024-02-15T17:05:42;15.00;11.50;7.00
78512;PMS5003;67809;55.034;73.462;2024-02-15T17:08:08;13.75;10.25;6.00
78512;PMS5003;67809;55.034;73.462;2024-02-15T17:10:35;7.50;6.75;4.00
78512;PMS5003;67809;55.034;73.462;2024-02-15T17:13:02;10.50;8.00;4.00
78512;PMS5003;67809;55.034;73.462;2024-02-15T17:15:29;10.25;8.25;5.00
78512;PMS5003;67809;55.034;73.462;2024-02-15T17:17:56;11.25;8.50;5.00
78512;PMS5003;67809;55.034;73.462;2024-02-15T17:20:23;9.75;8.00;5.50
78512;PMS5003;67809;55.034;73.462;2024-02-15T17:22:49;6.33;5.00;3.00
78512;PMS5003;67809;55.034;73.462;2024-02-15T17:25:15;10.50;7.75;5.00
78512;PMS5003;67809;55.034;73.462;2024-02-15T17:27:42;12.00;9.00;5.00
78512;PMS5003;67809;55.034;73.462;2024-02-15T17:30:09;10.00;8.00;4.50
78512;PMS5003;67809;55.034;73.462;2024-02-15T17:32:37;11.00;8.00;5.00
78512;PMS5003;67809;55.034;73.462;2024-02-15T17:35:05;14.00;10.00;6.00
78512;PMS5003;67809;55.034;73.462;2024-02-15T17:37:32;14.00;11.00;6.00
78512;PMS5003;67809;55.034;73.462;2024-02-15T17:39:58;11.00;9.00;5.00
78512;PMS5003;67809;55.034;73.462;2024-02-15T17:42:24;7.00;5.67;3.00
78512;PMS5003;67809;55.034;73.462;2024-02-15T17:44:50;8.75;6.50;3.75
78512;PMS5003;67809;55.034;73.462;2024-02-15T17:47:17;8.75;7.00;4.25
78512;PMS5003;67809;55.034;73.462;2024-02-15T17:49:43;11.00;8.00;3.00
78512;PMS5003;67809;55.034;73.462;2024-02-15T17:52:09;9.25;7.25;4.00
78512;PMS5003;67809;55.034;73.462;2024-02-15T17:54:36;10.25;8.25;4.00
78512;PMS5003;67809;55.034;73.462;2024-02-15T17:57:03;9.75;7.25;4.50
78512;PMS5003;67809;55.034;73.462;2024-02-15T17:59:30;8.00;7.00;4.25
78512;PMS5003;67809;55.034;73.462;2024-02-15T18:01:56;4.00;4.00;2.67
78512;PMS5003;67809;55.034;73.462;2024-02-15T18:04:22;7.00;6.00;3.25
78512;PMS5003;67809;55.034;73.462;2024-02-15T18:06:48;9.50;6.00;4.00
78512;PMS5003;67809;55.034;73.462;2024-02-15T18:09:15;8.00;6.00;3.00
78512;PMS5003;67809;55.034;73.462;2024-02-15T18:11:41;8.50;6.50;3.75
78512;PMS5003;67809;55.034;73.462;2024-02-15T18:14:07;9.00;6.75;4.00
78512;PMS5003;67809;55.034;73.462;2024-02-15T18:16:33;8.00;4.50;3.00
78512;PMS5003;67809;55.034;73.462;2024-02-15T18:19:00;7.00;6.00;4.00
78512;PMS5003;67809;55.034;73.462;2024-02-15T18:21:26;8.00;6.00;3.00
78512;PMS5003;67809;55.034;73.462;2024-02-15T18:23:54;11.00;8.00;5.00
78512;PMS5003;67809;55.034;73.462;2024-02-15T18:26:20;8.00;5.00;3.00
78512;PMS5003;67809;55.034;73.462;2024-02-15T18:28:47;4.50;3.75;3.00
78512;PMS5003;67809;55.034;73.462;2024-02-15T18:31:13;6.33;5.00;4.00
78512;PMS5003;67809;55.034;73.462;2024-02-15T18:33:39;12.00;9.00;4.00
78512;PMS5003;67809;55.034;73.462;2024-02-15T18:36:07;9.00;7.00;4.00
78512;PMS5003;67809;55.034;73.462;2024-02-15T18:38:34;7.25;6.00;3.00
78512;PMS5003;67809;55.034;73.462;2024-02-15T18:41:00;9.00;7.00;4.75
78512;PMS5003;67809;55.034;73.462;2024-02-15T18:43:32;8.67;6.00;3.00
78512;PMS5003;67809;55.034;73.462;2024-02-15T18:45:58;9.00;5.75;3.00
78512;PMS5003;67809;55.034;73.462;2024-02-15T18:48:24;7.00;6.00;3.50
78512;PMS5003;67809;55.034;73.462;2024-02-15T18:50:51;10.00;8.00;5.00
78512;PMS5003;67809;55.034;73.462;2024-02-15T18:53:17;5.33;5.00;3.33
78512;PMS5003;67809;55.034;73.462;2024-02-15T18:55:44;8.50;6.00;3.00
78512;PMS5003;67809;55.034;73.462;2024-02-15T18:58:10;8.00;6.50;4.00
78512;PMS5003;67809;55.034;73.462;2024-02-15T19:00:36;4.00;3.75;3.00
78512;PMS5003;67809;55.034;73.462;2024-02-15T19:03:04;7.00;5.00;3.00
78512;PMS5003;67809;55.034;73.462;2024-02-15T19:05:30;4.00;3.00;2.00
78512;PMS5003;67809;55.034;73.462;2024-02-15T19:07:57;7.00;4.00;2.00
78512;PMS5003;67809;55.034;73.462;2024-02-15T19:10:23;3.25;2.00;1.25
78512;PMS5003;67809;55.034;73.462;2024-02-15T19:12:50;6.00;5.00;2.33
78512;PMS5003;67809;55.034;73.462;2024-02-15T19:15:19;5.75;4.00;2.50
78512;PMS5003;67809;55.034;73.462;2024-02-15T19:17:45;8.00;5.00;2.75
78512;PMS5003;67809;55.034;73.462;2024-02-15T19:20:12;4.00;3.25;2.00
78512;PMS5003;67809;55.034;73.462;2024-02-15T19:22:38;5.00;4.00;2.00
78512;PMS5003;67809;55.034;73.462;2024-02-15T19:25:05;2.00;1.75;1.00
78512;PMS5003;67809;55.034;73.462;2024-02-15T19:27:31;4.00;3.25;2.00
78512;PMS5003;67809;55.034;73.462;2024-02-15T19:29:58;4.50;3.50;1.50
78512;PMS5003;67809;55.034;73.462;2024-02-15T19:32:24;5.00;4.00;2.00
78512;PMS5003;67809;55.034;73.462;2024-02-15T19:34:50;4.00;4.00;2.00
78512;PMS5003;67809;55.034;73.462;2024-02-15T19:37:16;6.00;4.00;2.00
78512;PMS5003;67809;55.034;73.462;2024-02-15T19:39:43;7.00;5.00;3.00
78512;PMS5003;67809;55.034;73.462;2024-02-15T19:42:11;5.67;3.67;2.00
78512;PMS5003;67809;55.034;73.462;2024-02-15T19:44:39;4.00;3.00;2.00
78512;PMS5003;67809;55.034;73.462;2024-02-15T19:47:05;3.00;2.50;1.00
78512;PMS5003;67809;55.034;73.462;2024-02-15T19:49:31;4.00;3.00;1.25
78512;PMS5003;67809;55.034;73.462;2024-02-15T19:51:59;4.00;3.00;2.00
78512;PMS5003;67809;55.034;73.462;2024-02-15T19:54:27;6.00;4.00;2.00
78512;PMS5003;67809;55.034;73.462;2024-02-15T19:56:55;5.00;3.00;1.50
78512;PMS5003;67809;55.034;73.462;2024-02-15T19:59:21;4.00;3.00;2.00
78512;PMS5003;67809;55.034;73.462;2024-02-15T20:01:48;3.00;3.00;2.00
78512;PMS5003;67809;55.034;73.462;2024-02-15T20:04:15;4.00;4.00;2.00
78512;PMS5003;67809;55.034;73.462;2024-02-15T20:06:44;4.00;3.00;2.00
78512;PMS5003;67809;55.034;73.462;2024-02-15T20:09:10;7.00;6.00;2.25
78512;PMS5003;67809;55.034;73.462;2024-02-15T20:11:36;4.00;3.25;2.00
78512;PMS5003;67809;55.034;73.462;2024-02-15T20:14:03;5.00;4.00;2.00
78512;PMS5003;67809;55.034;73.462;2024-02-15T20:16:32;9.00;4.00;2.25
78512;PMS5003;67809;55.034;73.462;2024-02-15T20:18:58;5.50;4.00;2.00
78512;PMS5003;67809;55.034;73.462;2024-02-15T20:21:24;7.00;6.00;3.00
78512;PMS5003;67809;55.034;73.462;2024-02-15T20:23:57;6.00;5.00;3.00
78512;PMS5003;67809;55.034;73.462;2024-02-15T20:26:25;8.00;4.25;3.00
78512;PMS5003;67809;55.034;73.462;2024-02-15T20:28:52;9.00;7.00;5.00
78512;PMS5003;67809;55.034;73.462;2024-02-15T20:31:19;7.50;4.75;3.00
78512;PMS5003;67809;55.034;73.462;2024-02-15T20:33:46;6.00;5.00;3.00
78512;PMS5003;67809;55.034;73.462;2024-02-15T20:36:14;4.25;3.50;2.00
78512;PMS5003;67809;55.034;73.462;2024-02-15T20:38:40;6.50;5.00;3.00
78512;PMS5003;67809;55.034;73.462;2024-02-15T20:41:07;5.50;5.00;3.00
78512;PMS5003;67809;55.034;73.462;2024-02-15T20:43:35;7.00;6.00;2.00
78512;PMS5003;67809;55.034;73.462;2024-02-15T20:46:04;6.00;4.00;2.00
78512;PMS5003;67809;55.034;73.462;2024-02-15T20:48:38;6.00;4.00;2.00
78512;PMS5003;67809;55.034;73.462;2024-02-15T20:51:05;9.75;6.75;3.00
78512;PMS5003;67809;55.034;73.462;2024-02-15T20:53:31;4.50;3.75;2.00
78512;PMS5003;67809;55.034;73.462;2024-02-15T20:55:57;4.75;3.75;2.75
78512;PMS5003;67809;55.034;73.462;2024-02-15T20:58:23;5.00;5.00;2.00
78512;PMS5003;67809;55.034;73.462;2024-02-15T21:00:50;8.00;6.25;3.00
78512;PMS5003;67809;55.034;73.462;2024-02-15T21:03:17;5.67;4.00;3.00
78512;PMS5003;67809;55.034;73.462;2024-02-15T21:05:44;6.00;4.00;2.50
78512;PMS5003;67809;55.034;73.462;2024-02-15T21:08:10;6.75;5.00;3.00
78512;PMS5003;67809;55.034;73.462;2024-02-15T21:10:36;8.00;6.00;3.00
78512;PMS5003;67809;55.034;73.462;2024-02-15T21:13:02;5.00;4.00;2.00
78512;PMS5003;67809;55.034;73.462;2024-02-15T21:15:29;6.50;4.75;3.00